sensor_id;sensor_type;location;lat;lon;timestamp;pressure;altitude;pressure_sealevel;temperature;humidity
74435;BME280;62867;52.038;29.256;2023-11-19T00:00:55;1030.8;;;0.9;64.6
74435;BME280;62867;52.038;29.256;2023-11-19T00:06:19;1030.8;;;0.9;64.8
74435;BME280;62867;52.038;29.256;2023-11-19T00:10:57;1030.9;;;0.9;64.9
74435;BME280;62867;52.038;29.256;2023-11-19T00:16:17;1030.8;;;0.8;65
74435;BME280;62867;52.038;29.256;2023-11-19T00:20:55;1030.7;;;0.8;65
74435;BME280;62867;52.038;29.256;2023-11-19T00:26:07;1030.7;;;0.7;65
74435;BME280;62867;52.038;29.256;2023-11-19T00:31:17;1030.6;;;0.7;65
74435;BME280;62867;52.038;29.256;2023-11-19T00:35:51;1030.6;;;0.7;64.8
74435;BME280;62867;52.038;29.256;2023-11-19T00:41:17;1030.7;;;0.6;64.8
74435;BME280;62867;52.038;29.256;2023-11-19T00:45:43;1030.7;;;0.6;64.8
74435;BME280;62867;52.038;29.256;2023-11-19T00:50:35;1030.7;;;0.5;64.9
74435;BME280;62867;52.038;29.256;2023-11-19T00:56:17;1030.7;;;0.5;64.8
74435;BME280;62867;52.038;29.256;2023-11-19T01:00:57;1030.7;;;0.5;64.9
74435;BME280;62867;52.038;29.256;2023-11-19T01:06:26;1030.7;;;0.4;65
74435;BME280;62867;52.038;29.256;2023-11-19T01:10:37;1030.7;;;0.4;65.2
74435;BME280;62867;52.038;29.256;2023-11-19T01:16:07;1030.6;;;0.4;65.1
74435;BME280;62867;52.038;29.256;2023-11-19T01:21:17;1030.6;;;0.4;65.2
74435;BME280;62867;52.038;29.256;2023-11-19T01:25:37;1030.6;;;0.4;65.1
74435;BME280;62867;52.038;29.256;2023-11-19T01:31:17;1030.4;;;0.4;65.1
74435;BME280;62867;52.038;29.256;2023-11-19T01:35:35;1030.4;;;0.4;65.2
74435;BME280;62867;52.038;29.256;2023-11-19T01:40:57;1030.4;;;0.4;65.1
74435;BME280;62867;52.038;29.256;2023-11-19T01:46:17;1030.4;;;0.4;64.8
74435;BME280;62867;52.038;29.256;2023-11-19T01:51:17;1030.3;;;0.4;64.5
74435;BME280;62867;52.038;29.256;2023-11-19T01:56:05;1030.3;;;0.4;64.6
74435;BME280;62867;52.038;29.256;2023-11-19T02:00:55;1030.3;;;0.5;64.4
74435;BME280;62867;52.038;29.256;2023-11-19T02:06:07;1030.3;;;0.5;64.4
74435;BME280;62867;52.038;29.256;2023-11-19T02:11:17;1030.2;;;0.5;64.5
74435;BME280;62867;52.038;29.256;2023-11-19T02:15:37;1030.2;;;0.5;64.6
74435;BME280;62867;52.038;29.256;2023-11-19T02:21:07;1030.1;;;0.5;64.4
74435;BME280;62867;52.038;29.256;2023-11-19T02:26:05;1030.1;;;0.4;64.5
74435;BME280;62867;52.038;29.256;2023-11-19T02:31:07;1030;;;0.4;64.3
74435;BME280;62867;52.038;29.256;2023-11-19T02:36:17;1030;;;0.3;64.1
74435;BME280;62867;52.038;29.256;2023-11-19T02:41:17;1030;;;0.2;63.9
74435;BME280;62867;52.038;29.256;2023-11-19T02:46:09;1029.8;;;0.2;64.1
74435;BME280;62867;52.038;29.256;2023-11-19T02:50:37;1029.8;;;0.1;64.3
74435;BME280;62867;52.038;29.256;2023-11-19T02:56:09;1029.8;;;0.1;64.5
74435;BME280;62867;52.038;29.256;2023-11-19T03:01:22;1029.8;;;0.1;64.6
74435;BME280;62867;52.038;29.256;2023-11-19T03:05:51;1029.8;;;0.1;64.4
74435;BME280;62867;52.038;29.256;2023-11-19T03:10:37;1029.8;;;0.1;64.4
74435;BME280;62867;52.038;29.256;2023-11-19T03:15:55;1029.8;;;0.1;64.5
74435;BME280;62867;52.038;29.256;2023-11-19T03:20:37;1029.7;;;0.1;64.4
74435;BME280;62867;52.038;29.256;2023-11-19T03:26:17;1029.7;;;0;64.4
74435;BME280;62867;52.038;29.256;2023-11-19T03:30:57;1029.7;;;-0.1;64.3
74435;BME280;62867;52.038;29.256;2023-11-19T03:36:07;1029.7;;;-0.1;64.3
74435;BME280;62867;52.038;29.256;2023-11-19T03:40:55;1029.7;;;-0.2;64.1
74435;BME280;62867;52.038;29.256;2023-11-19T03:45:49;1029.8;;;-0.3;64.2
74435;BME280;62867;52.038;29.256;2023-11-19T03:51:17;1029.8;;;-0.3;64
74435;BME280;62867;52.038;29.256;2023-11-19T03:55:49;1029.7;;;-0.4;64.1
74435;BME280;62867;52.038;29.256;2023-11-19T04:00:53;1029.7;;;-0.4;64.3
74435;BME280;62867;52.038;29.256;2023-11-19T04:05:37;1029.6;;;-0.4;64.6
74435;BME280;62867;52.038;29.256;2023-11-19T04:10:35;1029.7;;;-0.4;64.6
74435;BME280;62867;52.038;29.256;2023-11-19T04:16:17;1029.7;;;-0.4;64.6
74435;BME280;62867;52.038;29.256;2023-11-19T04:20:43;1029.7;;;-0.4;64.6
74435;BME280;62867;52.038;29.256;2023-11-19T04:25:49;1029.7;;;-0.4;64.4
74435;BME280;62867;52.038;29.256;2023-11-19T04:30:55;1029.6;;;-0.4;64.5
74435;BME280;62867;52.038;29.256;2023-11-19T04:36:07;1029.6;;;-0.4;64.3
74435;BME280;62867;52.038;29.256;2023-11-19T04:41:15;1029.5;;;-0.4;64.3
74435;BME280;62867;52.038;29.256;2023-11-19T04:45:55;1029.3;;;-0.5;64.2
74435;BME280;62867;52.038;29.256;2023-11-19T04:50:37;1029.2;;;-0.5;64.2
74435;BME280;62867;52.038;29.256;2023-11-19T04:55:37;1029.1;;;-0.5;64.3
74435;BME280;62867;52.038;29.256;2023-11-19T05:01:12;1029;;;-0.6;64.5
74435;BME280;62867;52.038;29.256;2023-11-19T05:06:15;1029;;;-0.6;64.6
74435;BME280;62867;52.038;29.256;2023-11-19T05:10:55;1028.9;;;-0.6;64.5
74435;BME280;62867;52.038;29.256;2023-11-19T05:16:05;1028.9;;;-0.6;64.5
74435;BME280;62867;52.038;29.256;2023-11-19T05:20:35;1028.9;;;-0.6;64.5
74435;BME280;62867;52.038;29.256;2023-11-19T05:26:07;1029;;;-0.7;64.7
74435;BME280;62867;52.038;29.256;2023-11-19T05:31:15;1028.9;;;-0.7;64.6
74435;BME280;62867;52.038;29.256;2023-11-19T05:35:49;1028.9;;;-0.7;64.5
74435;BME280;62867;52.038;29.256;2023-11-19T05:40:35;1028.8;;;-0.7;64.3
74435;BME280;62867;52.038;29.256;2023-11-19T05:45:35;1028.8;;;-0.7;64.3
74435;BME280;62867;52.038;29.256;2023-11-19T05:50:35;1028.8;;;-0.7;64.2
74435;BME280;62867;52.038;29.256;2023-11-19T05:56:17;1028.9;;;-0.6;64.2
74435;BME280;62867;52.038;29.256;2023-11-19T06:00:59;1028.9;;;-0.6;64.3
74435;BME280;62867;52.038;29.256;2023-11-19T06:06:07;1028.9;;;-0.5;64.6
74435;BME280;62867;52.038;29.256;2023-11-19T06:10:55;1028.9;;;-0.5;64.3
74435;BME280;62867;52.038;29.256;2023-11-19T06:15:49;1028.8;;;-0.5;64.2
74435;BME280;62867;52.038;29.256;2023-11-19T06:21:05;1028.9;;;-0.4;63.9
74435;BME280;62867;52.038;29.256;2023-11-19T06:25:49;1028.8;;;-0.4;64
74435;BME280;62867;52.038;29.256;2023-11-19T06:30:37;1028.8;;;-0.4;63.6
74435;BME280;62867;52.038;29.256;2023-11-19T06:35:35;1028.8;;;-0.3;63.3
74435;BME280;62867;52.038;29.256;2023-11-19T06:40:45;1028.8;;;-0.3;63.1
74435;BME280;62867;52.038;29.256;2023-11-19T06:46:15;1028.6;;;-0.2;62.8
74435;BME280;62867;52.038;29.256;2023-11-19T06:50:45;1028.5;;;-0.2;62.5
74435;BME280;62867;52.038;29.256;2023-11-19T06:55:49;1028.5;;;-0.1;62.5
74435;BME280;62867;52.038;29.256;2023-11-19T07:01:13;1028.6;;;0.1;62.6
74435;BME280;62867;52.038;29.256;2023-11-19T07:05:49;1028.6;;;0.2;62.5
74435;BME280;62867;52.038;29.256;2023-11-19T07:11:03;1028.6;;;0.4;62.1
74435;BME280;62867;52.038;29.256;2023-11-19T07:15:35;1028.6;;;0.5;61.6
74435;BME280;62867;52.038;29.256;2023-11-19T07:20:37;1028.6;;;0.5;61.1
74435;BME280;62867;52.038;29.256;2023-11-19T07:25:43;1028.5;;;0.6;60.9
74435;BME280;62867;52.038;29.256;2023-11-19T07:31:01;1028.5;;;0.6;60.5
74435;BME280;62867;52.038;29.256;2023-11-19T07:36:17;1028.4;;;0.7;60.4
74435;BME280;62867;52.038;29.256;2023-11-19T07:41:01;1028.4;;;0.9;60.2
74435;BME280;62867;52.038;29.256;2023-11-19T07:46:05;1028.4;;;1;59.6
74435;BME280;62867;52.038;29.256;2023-11-19T07:51:15;1028.3;;;1.1;59.1
74435;BME280;62867;52.038;29.256;2023-11-19T07:55:37;1028.2;;;1.1;58.6
74435;BME280;62867;52.038;29.256;2023-11-19T08:01:09;1028.2;;;1.2;59
74435;BME280;62867;52.038;29.256;2023-11-19T08:05:57;1028.1;;;1.4;58.4
74435;BME280;62867;52.038;29.256;2023-11-19T08:10:49;1028.1;;;1.5;58.4
74435;BME280;62867;52.038;29.256;2023-11-19T08:15:35;1028.1;;;1.6;58.3
74435;BME280;62867;52.038;29.256;2023-11-19T08:20:43;1028.1;;;1.8;58.2
74435;BME280;62867;52.038;29.256;2023-11-19T08:26:17;1028.1;;;1.9;57.4
74435;BME280;62867;52.038;29.256;2023-11-19T08:30:45;1028.1;;;2;56.9
74435;BME280;62867;52.038;29.256;2023-11-19T08:36:07;1028.1;;;2.1;56.9
74435;BME280;62867;52.038;29.256;2023-11-19T08:41:17;1028;;;2.2;56.1
74435;BME280;62867;52.038;29.256;2023-11-19T08:45:53;1027.9;;;2.3;56
74435;BME280;62867;52.038;29.256;2023-11-19T08:50:47;1027.9;;;2.3;55.9
74435;BME280;62867;52.038;29.256;2023-11-19T08:55:49;1027.9;;;2.4;55.7
74435;BME280;62867;52.038;29.256;2023-11-19T09:00:37;1027.8;;;2.4;55.5
74435;BME280;62867;52.038;29.256;2023-11-19T09:05:59;1027.8;;;2.5;55.4
74435;BME280;62867;52.038;29.256;2023-11-19T09:10:41;1027.7;;;2.6;55.4
74435;BME280;62867;52.038;29.256;2023-11-19T09:16:17;1027.6;;;2.7;54.9
74435;BME280;62867;52.038;29.256;2023-11-19T09:20:35;1027.6;;;2.8;54.8
74435;BME280;62867;52.038;29.256;2023-11-19T09:26:05;1027.6;;;3;54.5
74435;BME280;62867;52.038;29.256;2023-11-19T09:31:15;1027.5;;;3.2;54.6
74435;BME280;62867;52.038;29.256;2023-11-19T09:35:49;1027.4;;;3.3;53.9
74435;BME280;62867;52.038;29.256;2023-11-19T09:40:55;1027.3;;;3.3;53
74435;BME280;62867;52.038;29.256;2023-11-19T09:45:49;1027.3;;;3.4;53.2
74435;BME280;62867;52.038;29.256;2023-11-19T09:50:37;1027.3;;;3.6;52.7
74435;BME280;62867;52.038;29.256;2023-11-19T09:55:37;1027.1;;;3.9;53
74435;BME280;62867;52.038;29.256;2023-11-19T10:00:45;1027;;;4.1;52.7
74435;BME280;62867;52.038;29.256;2023-11-19T10:06:17;1026.9;;;4.3;52.3
74435;BME280;62867;52.038;29.256;2023-11-19T10:10:43;1026.9;;;4.4;52.8
74435;BME280;62867;52.038;29.256;2023-11-19T10:15:49;1026.8;;;4.3;52
74435;BME280;62867;52.038;29.256;2023-11-19T10:21:17;1026.8;;;4.3;52.2
74435;BME280;62867;52.038;29.256;2023-11-19T10:25:49;1026.8;;;4.3;52
74435;BME280;62867;52.038;29.256;2023-11-19T10:31:05;1026.7;;;4.3;51.7
74435;BME280;62867;52.038;29.256;2023-11-19T10:35:51;1026.7;;;4.3;51.6
74435;BME280;62867;52.038;29.256;2023-11-19T10:40:49;1026.6;;;4.2;51
74435;BME280;62867;52.038;29.256;2023-11-19T10:45:37;1026.6;;;4.2;51
74435;BME280;62867;52.038;29.256;2023-11-19T10:50:41;1026.5;;;4.2;50.9
74435;BME280;62867;52.038;29.256;2023-11-19T10:56:15;1026.4;;;4.3;51.3
74435;BME280;62867;52.038;29.256;2023-11-19T11:01:01;1026.3;;;4.4;51.4
74435;BME280;62867;52.038;29.256;2023-11-19T11:06:07;1026.4;;;4.4;51.6
74435;BME280;62867;52.038;29.256;2023-11-19T11:10:59;1026.3;;;4.4;51.7
74435;BME280;62867;52.038;29.256;2023-11-19T11:15:49;1026.2;;;4.5;51.5
74435;BME280;62867;52.038;29.256;2023-11-19T11:21:14;1026.2;;;4.5;50.8
74435;BME280;62867;52.038;29.256;2023-11-19T11:25:36;1026.1;;;4.6;50.9
74435;BME280;62867;52.038;29.256;2023-11-19T11:30:53;1026;;;4.8;50.8
74435;BME280;62867;52.038;29.256;2023-11-19T11:35:46;1026;;;4.9;49.7
74435;BME280;62867;52.038;29.256;2023-11-19T11:40:37;1025.9;;;5;50
74435;BME280;62867;52.038;29.256;2023-11-19T11:46:01;1025.8;;;5;50.1
74435;BME280;62867;52.038;29.256;2023-11-19T11:51:01;1025.7;;;5;50.6
74435;BME280;62867;52.038;29.256;2023-11-19T11:56:15;1025.7;;;4.9;50.6
74435;BME280;62867;52.038;29.256;2023-11-19T12:01:02;1025.7;;;4.9;50.4
74435;BME280;62867;52.038;29.256;2023-11-19T12:05:49;1025.6;;;4.8;50.6
74435;BME280;62867;52.038;29.256;2023-11-19T12:11:15;1025.6;;;4.8;50.5
74435;BME280;62867;52.038;29.256;2023-11-19T12:16:06;1025.5;;;4.7;50.3
74435;BME280;62867;52.038;29.256;2023-11-19T12:21:07;1025.5;;;4.6;50.4
74435;BME280;62867;52.038;29.256;2023-11-19T12:25:35;1025.4;;;4.5;50
74435;BME280;62867;52.038;29.256;2023-11-19T12:30:35;1025.3;;;4.4;50.6
74435;BME280;62867;52.038;29.256;2023-11-19T12:35:59;1025.2;;;4.3;51.2
74435;BME280;62867;52.038;29.256;2023-11-19T12:41:02;1025.1;;;4.1;51.4
74435;BME280;62867;52.038;29.256;2023-11-19T12:46:17;1025.1;;;4;51.9
74435;BME280;62867;52.038;29.256;2023-11-19T12:50:53;1025.1;;;3.8;52.1
74435;BME280;62867;52.038;29.256;2023-11-19T12:55:47;1025;;;3.7;52.1
74435;BME280;62867;52.038;29.256;2023-11-19T13:01:09;1025;;;3.6;52.3
74435;BME280;62867;52.038;29.256;2023-11-19T13:05:43;1025.1;;;3.4;53
74435;BME280;62867;52.038;29.256;2023-11-19T13:10:49;1025;;;3.3;52.6
74435;BME280;62867;52.038;29.256;2023-11-19T13:16:01;1025;;;3.2;52
74435;BME280;62867;52.038;29.256;2023-11-19T13:20:35;1024.9;;;3.1;52.8
74435;BME280;62867;52.038;29.256;2023-11-19T13:25:55;1024.8;;;2.9;52.5
74435;BME280;62867;52.038;29.256;2023-11-19T13:31:03;1024.8;;;2.8;52.8
74435;BME280;62867;52.038;29.256;2023-11-19T13:36:15;1024.7;;;2.7;53.6
74435;BME280;62867;52.038;29.256;2023-11-19T13:41:01;1024.7;;;2.6;54.3
74435;BME280;62867;52.038;29.256;2023-11-19T13:45:49;1024.6;;;2.5;55.3
74435;BME280;62867;52.038;29.256;2023-11-19T13:51:15;1024.5;;;2.5;55.7
74435;BME280;62867;52.038;29.256;2023-11-19T13:55:43;1024.4;;;2.4;55.5
74435;BME280;62867;52.038;29.256;2023-11-19T14:00:35;1024.4;;;2.3;55.3
74435;BME280;62867;52.038;29.256;2023-11-19T14:05:43;1024.3;;;2.2;55.8
74435;BME280;62867;52.038;29.256;2023-11-19T14:10:43;1024.3;;;2.1;55.3
74435;BME280;62867;52.038;29.256;2023-11-19T14:16:01;1024.3;;;2;55.2
74435;BME280;62867;52.038;29.256;2023-11-19T14:21:03;1024.3;;;1.9;55.4
74435;BME280;62867;52.038;29.256;2023-11-19T14:26:13;1024.3;;;1.8;55.8
74435;BME280;62867;52.038;29.256;2023-11-19T14:31:01;1024.3;;;1.7;56
74435;BME280;62867;52.038;29.256;2023-11-19T14:35:37;1024.3;;;1.6;55.4
74435;BME280;62867;52.038;29.256;2023-11-19T14:41:15;1024.2;;;1.6;56.3
74435;BME280;62867;52.038;29.256;2023-11-19T14:45:37;1024.1;;;1.6;56.5
74435;BME280;62867;52.038;29.256;2023-11-19T14:50:53;1024;;;1.5;56.6
74435;BME280;62867;52.038;29.256;2023-11-19T14:55:35;1024;;;1.5;56.9
74435;BME280;62867;52.038;29.256;2023-11-19T15:00:45;1024;;;1.4;56.6
74435;BME280;62867;52.038;29.256;2023-11-19T15:06:02;1023.9;;;1.3;56.1
74435;BME280;62867;52.038;29.256;2023-11-19T15:11:01;1023.9;;;1.3;56.7
74435;BME280;62867;52.038;29.256;2023-11-19T15:16:17;1023.9;;;1.2;56.6
74435;BME280;62867;52.038;29.256;2023-11-19T15:21:01;1023.9;;;1.1;57
74435;BME280;62867;52.038;29.256;2023-11-19T15:25:55;1024;;;1.1;57.1
74435;BME280;62867;52.038;29.256;2023-11-19T15:31:15;1023.9;;;1;57.3
74435;BME280;62867;52.038;29.256;2023-11-19T15:35:42;1024;;;1;57.4
74435;BME280;62867;52.038;29.256;2023-11-19T15:40:36;1024;;;1;57.6
74435;BME280;62867;52.038;29.256;2023-11-19T15:45:35;1024.1;;;0.9;58
74435;BME280;62867;52.038;29.256;2023-11-19T15:50:41;1024;;;0.9;58
74435;BME280;62867;52.038;29.256;2023-11-19T15:55:59;1024;;;0.8;58.3
74435;BME280;62867;52.038;29.256;2023-11-19T16:00:53;1023.9;;;0.8;58.7
74435;BME280;62867;52.038;29.256;2023-11-19T16:06:19;1023.8;;;0.7;58.6
74435;BME280;62867;52.038;29.256;2023-11-19T16:11:03;1023.8;;;0.7;58.8
74435;BME280;62867;52.038;29.256;2023-11-19T16:15:49;1023.8;;;0.6;58.8
74435;BME280;62867;52.038;29.256;2023-11-19T16:21:19;1023.8;;;0.6;58.9
74435;BME280;62867;52.038;29.256;2023-11-19T16:25:36;1023.8;;;0.5;58.9
74435;BME280;62867;52.038;29.256;2023-11-19T16:30:37;1023.7;;;0.5;59.1
74435;BME280;62867;52.038;29.256;2023-11-19T16:35:43;1023.7;;;0.5;58.9
74435;BME280;62867;52.038;29.256;2023-11-19T16:40:49;1023.7;;;0.6;59.3
74435;BME280;62867;52.038;29.256;2023-11-19T16:46:02;1023.7;;;0.6;58.9
74435;BME280;62867;52.038;29.256;2023-11-19T16:51:07;1023.6;;;0.6;59.2
74435;BME280;62867;52.038;29.256;2023-11-19T16:56:17;1023.6;;;0.6;59.1
74435;BME280;62867;52.038;29.256;2023-11-19T17:01:01;1023.6;;;0.6;58.9
74435;BME280;62867;52.038;29.256;2023-11-19T17:05:35;1023.5;;;0.6;58.7
74435;BME280;62867;52.038;29.256;2023-11-19T17:11:17;1023.5;;;0.6;58.8
74435;BME280;62867;52.038;29.256;2023-11-19T17:15:57;1023.4;;;0.6;58.8
74435;BME280;62867;52.038;29.256;2023-11-19T17:20:36;1023.4;;;0.5;58.4
74435;BME280;62867;52.038;29.256;2023-11-19T17:25:35;1023.4;;;0.5;58.6
74435;BME280;62867;52.038;29.256;2023-11-19T17:30:45;1023.3;;;0.5;58.8
74435;BME280;62867;52.038;29.256;2023-11-19T17:36:01;1023.3;;;0.5;58.9
74435;BME280;62867;52.038;29.256;2023-11-19T17:41:04;1023.2;;;0.5;59
74435;BME280;62867;52.038;29.256;2023-11-19T17:46:07;1023.2;;;0.5;59.2
74435;BME280;62867;52.038;29.256;2023-11-19T17:51:01;1023.2;;;0.5;59.1
74435;BME280;62867;52.038;29.256;2023-11-19T17:55:49;1023.2;;;0.5;59
74435;BME280;62867;52.038;29.256;2023-11-19T18:01:17;1023.2;;;0.5;58.8
74435;BME280;62867;52.038;29.256;2023-11-19T18:05:35;1023.2;;;0.5;58.7
74435;BME280;62867;52.038;29.256;2023-11-19T18:10:35;1023.2;;;0.4;58.8
74435;BME280;62867;52.038;29.256;2023-11-19T18:15:45;1023.1;;;0.4;59.2
74435;BME280;62867;52.038;29.256;2023-11-19T18:20:45;1023.1;;;0.4;59.3
74435;BME280;62867;52.038;29.256;2023-11-19T18:26:03;1023.1;;;0.3;59
74435;BME280;62867;52.038;29.256;2023-11-19T18:31:03;1023;;;0.3;59
74435;BME280;62867;52.038;29.256;2023-11-19T18:36:17;1023;;;0.3;59.3
74435;BME280;62867;52.038;29.256;2023-11-19T18:41:03;1023;;;0.3;59.2
74435;BME280;62867;52.038;29.256;2023-11-19T18:45:49;1023;;;0.2;59.5
74435;BME280;62867;52.038;29.256;2023-11-19T18:51:17;1022.9;;;0.2;59.5
74435;BME280;62867;52.038;29.256;2023-11-19T18:56:05;1022.9;;;0.2;59.3
74435;BME280;62867;52.038;29.256;2023-11-19T19:00:35;1022.8;;;0.2;59.4
74435;BME280;62867;52.038;29.256;2023-11-19T19:06:05;1022.7;;;0.2;59.2
74435;BME280;62867;52.038;29.256;2023-11-19T19:10:57;1022.8;;;0.2;59.1
74435;BME280;62867;52.038;29.256;2023-11-19T19:16:05;1022.8;;;0.2;59.4
74435;BME280;62867;52.038;29.256;2023-11-19T19:21:01;1022.7;;;0.2;59.6
74435;BME280;62867;52.038;29.256;2023-11-19T19:26:13;1022.8;;;0.1;59.2
74435;BME280;62867;52.038;29.256;2023-11-19T19:31:03;1022.8;;;0.1;59
74435;BME280;62867;52.038;29.256;2023-11-19T19:35:47;1022.8;;;0;59.1
74435;BME280;62867;52.038;29.256;2023-11-19T19:45:35;1022.7;;;0;58.7
74435;BME280;62867;52.038;29.256;2023-11-19T19:50:51;1022.6;;;-0.1;58.9
74435;BME280;62867;52.038;29.256;2023-11-19T19:55:37;1022.6;;;-0.1;59.1
74435;BME280;62867;52.038;29.256;2023-11-19T20:01:17;1022.7;;;-0.1;58.5
74435;BME280;62867;52.038;29.256;2023-11-19T20:06:17;1022.6;;;-0.2;58.7
74435;BME280;62867;52.038;29.256;2023-11-19T20:11:03;1022.6;;;-0.3;58.2
74435;BME280;62867;52.038;29.256;2023-11-19T20:15:53;1022.6;;;-0.4;58.6
74435;BME280;62867;52.038;29.256;2023-11-19T20:21:09;1022.6;;;-0.5;58.8
74435;BME280;62867;52.038;29.256;2023-11-19T20:25:57;1022.5;;;-0.5;59.1
74435;BME280;62867;52.038;29.256;2023-11-19T20:31:00;1022.5;;;-0.6;59.1
74435;BME280;62867;52.038;29.256;2023-11-19T20:35:35;1022.4;;;-0.6;59.2
74435;BME280;62867;52.038;29.256;2023-11-19T20:40:51;1022.4;;;-0.7;59.5
74435;BME280;62867;52.038;29.256;2023-11-19T20:46:18;1022.4;;;-0.7;59.9
74435;BME280;62867;52.038;29.256;2023-11-19T20:50:45;1022.4;;;-0.8;59.9
74435;BME280;62867;52.038;29.256;2023-11-19T20:56:19;1022.4;;;-0.8;59.8
74435;BME280;62867;52.038;29.256;2023-11-19T21:01:03;1022.4;;;-0.8;60.1
74435;BME280;62867;52.038;29.256;2023-11-19T21:05:35;1022.3;;;-0.8;59.9
74435;BME280;62867;52.038;29.256;2023-11-19T21:11:17;1022.3;;;-0.8;59.9
74435;BME280;62867;52.038;29.256;2023-11-19T21:16:00;1022.3;;;-0.8;60
74435;BME280;62867;52.038;29.256;2023-11-19T21:21:17;1022.3;;;-0.8;60.1
74435;BME280;62867;52.038;29.256;2023-11-19T21:25:35;1022.3;;;-0.9;60
74435;BME280;62867;52.038;29.256;2023-11-19T21:30:55;1022.3;;;-1;59.7
74435;BME280;62867;52.038;29.256;2023-11-19T21:36:17;1022.2;;;-1.1;59.8
74435;BME280;62867;52.038;29.256;2023-11-19T21:40:45;1022.3;;;-1.1;60
74435;BME280;62867;52.038;29.256;2023-11-19T21:45:59;1022.2;;;-1.2;59.9
74435;BME280;62867;52.038;29.256;2023-11-19T21:51:03;1022.2;;;-1.2;59.8
74435;BME280;62867;52.038;29.256;2023-11-19T21:55:55;1022.1;;;-1.3;60
74435;BME280;62867;52.038;29.256;2023-11-19T22:01:17;1022;;;-1.3;60.2
74435;BME280;62867;52.038;29.256;2023-11-19T22:05:57;1022;;;-1.3;60.3
74435;BME280;62867;52.038;29.256;2023-11-19T22:11:17;1022;;;-1.4;60
74435;BME280;62867;52.038;29.256;2023-11-19T22:15:35;1021.9;;;-1.5;60.5
74435;BME280;62867;52.038;29.256;2023-11-19T22:21:07;1021.8;;;-1.5;60.4
74435;BME280;62867;52.038;29.256;2023-11-19T22:26:17;1021.7;;;-1.5;60.5
74435;BME280;62867;52.038;29.256;2023-11-19T22:30:35;1021.7;;;-1.6;60.6
74435;BME280;62867;52.038;29.256;2023-11-19T22:36:19;1021.6;;;-1.6;60.5
74435;BME280;62867;52.038;29.256;2023-11-19T22:41:01;1021.5;;;-1.6;60.6
74435;BME280;62867;52.038;29.256;2023-11-19T22:46:09;1021.5;;;-1.7;60.5
74435;BME280;62867;52.038;29.256;2023-11-19T22:51:17;1021.4;;;-1.7;60.6
74435;BME280;62867;52.038;29.256;2023-11-19T22:55:57;1021.4;;;-1.8;60.7
74435;BME280;62867;52.038;29.256;2023-11-19T23:01:19;1021.3;;;-1.8;61
74435;BME280;62867;52.038;29.256;2023-11-19T23:05:35;1021.3;;;-1.8;61.2
74435;BME280;62867;52.038;29.256;2023-11-19T23:10:47;1021.3;;;-1.8;60.9
74435;BME280;62867;52.038;29.256;2023-11-19T23:16:19;1021.3;;;-1.8;60.8
74435;BME280;62867;52.038;29.256;2023-11-19T23:20:45;1021.2;;;-1.9;60.7
74435;BME280;62867;52.038;29.256;2023-11-19T23:26:19;1021.3;;;-2;60.6
74435;BME280;62867;52.038;29.256;2023-11-19T23:30:53;1021.2;;;-2;60.9
74435;BME280;62867;52.038;29.256;2023-11-19T23:36:07;1021.2;;;-2;61.1
74435;BME280;62867;52.038;29.256;2023-11-19T23:41:15;1021.2;;;-2;61.1
74435;BME280;62867;52.038;29.256;2023-11-19T23:45:57;1021.2;;;-2;61.2
74435;BME280;62867;52.038;29.256;2023-11-19T23:51:15;1021.2;;;-2;61.1
74435;BME280;62867;52.038;29.256;2023-11-19T23:55:38;1021.3;;;-2;61.3
